createdAt,value
2022-11-29T00:01:45.098Z,99.90
2022-11-29T00:04:13.826Z,15.70
2022-11-29T00:06:43.938Z,99.90
2022-11-29T00:09:14.506Z,99.90
2022-11-29T00:12:01.265Z,99.90
2022-11-29T00:14:30.639Z,99.90
2022-11-29T00:17:02.777Z,99.90
2022-11-29T00:19:32.486Z,99.90
2022-11-29T00:22:03.456Z,99.90
2022-11-29T00:24:33.126Z,1.00
2022-11-29T00:27:02.878Z,1.00
2022-11-29T00:29:32.038Z,99.90
2022-11-29T00:32:01.406Z,99.90
2022-11-29T00:34:30.115Z,99.90
2022-11-29T00:36:58.981Z,99.90
2022-11-29T00:39:29.333Z,99.90
2022-11-29T00:41:57.996Z,99.90
2022-11-29T00:44:26.712Z,99.90
2022-11-29T00:46:55.383Z,99.90
2022-11-29T00:49:24.083Z,99.90
2022-11-29T00:51:52.773Z,99.90
2022-11-29T00:54:21.760Z,99.90
2022-11-29T00:56:51.931Z,1.00
2022-11-29T00:59:20.718Z,99.90
2022-11-29T01:01:49.521Z,1.00
2022-11-29T01:04:18.581Z,99.90
2022-11-29T01:06:47.744Z,99.90
2022-11-29T01:09:16.545Z,1.00
2022-11-29T01:11:45.234Z,1.00
2022-11-29T01:14:15.626Z,99.90
2022-11-29T01:16:44.445Z,99.90
2022-11-29T01:19:13.229Z,99.90
2022-11-29T01:21:41.906Z,99.90
2022-11-29T01:24:10.595Z,1.00
2022-11-29T01:26:39.365Z,1.00
2022-11-29T01:29:08.062Z,1.00
2022-11-29T01:31:38.448Z,1.00
2022-11-29T01:34:08.485Z,1.00
2022-11-29T01:36:37.484Z,99.90
2022-11-29T01:39:07.716Z,1.00
2022-11-29T01:41:38.011Z,99.90
2022-11-29T01:44:28.122Z,99.90
2022-11-29T01:46:59.026Z,99.90
2022-11-29T01:49:33.599Z,99.90
2022-11-29T01:52:06.926Z,1.00
2022-11-29T01:54:41.013Z,91.20
2022-11-29T01:57:11.029Z,25.50
2022-11-29T01:59:43.306Z,1.00
2022-11-29T02:02:16.776Z,1.00
2022-11-29T02:04:47.670Z,1.00
2022-11-29T02:07:16.862Z,1.00
2022-11-29T02:09:45.888Z,99.90
2022-11-29T02:12:25.432Z,1.00
2022-11-29T02:15:16.321Z,1.00
2022-11-29T02:18:02.709Z,1.00
2022-11-29T02:21:02.208Z,1.00
2022-11-29T02:23:57.501Z,99.90
2022-11-29T02:26:48.355Z,99.90
2022-11-29T02:30:04.425Z,99.90
2022-11-29T02:33:02.206Z,1.00
2022-11-29T02:35:48.002Z,99.90
2022-11-29T02:38:25.624Z,99.90
2022-11-29T02:41:09.332Z,99.90
2022-11-29T02:44:13.708Z,99.90
2022-11-29T02:46:58.356Z,99.90
2022-11-29T02:49:43.354Z,1.00
2022-11-29T02:52:18.132Z,99.90
2022-11-29T02:54:53.724Z,1.00
2022-11-29T02:57:30.974Z,45.50
2022-11-29T03:00:05.335Z,99.90
2022-11-29T03:02:37.578Z,99.90
2022-11-29T03:05:17.339Z,1.00
2022-11-29T03:07:54.960Z,1.00
2022-11-29T03:10:33.823Z,1.00
2022-11-29T03:13:10.113Z,1.00
2022-11-29T03:15:46.153Z,99.90
2022-11-29T03:18:29.864Z,99.90
2022-11-29T03:21:10.399Z,99.90
2022-11-29T03:23:45.001Z,99.90
2022-11-29T03:26:18.905Z,99.90
2022-11-29T03:28:52.530Z,99.90
2022-11-29T03:31:28.682Z,99.90
2022-11-29T03:34:11.234Z,99.90
2022-11-29T03:36:49.422Z,99.90
2022-11-29T03:39:20.930Z,99.90
2022-11-29T03:41:54.691Z,1.00
2022-11-29T03:44:28.453Z,1.00
2022-11-29T03:47:01.579Z,99.90
2022-11-29T03:49:35.827Z,1.00
2022-11-29T03:52:13.820Z,99.90
2022-11-29T03:54:54.754Z,1.00
2022-11-29T03:57:32.687Z,58.60
2022-11-29T04:00:08.366Z,99.90
2022-11-29T04:03:04.136Z,99.90
2022-11-29T04:06:11.184Z,4.80
2022-11-29T04:09:21.557Z,1.00
2022-11-29T04:12:31.172Z,1.00
2022-11-29T04:15:32.225Z,50.60
2022-11-29T04:18:28.750Z,99.90
2022-11-29T04:21:31.880Z,7.40
2022-11-29T04:24:32.625Z,1.00
2022-11-29T04:27:40.542Z,1.00
2022-11-29T04:30:14.911Z,1.00
2022-11-29T04:33:20.364Z,1.00
2022-11-29T04:36:24.511Z,1.00
2022-11-29T04:39:28.855Z,99.90
2022-11-29T04:42:25.812Z,1.00
2022-11-29T04:45:12.323Z,99.90
2022-11-29T04:47:52.551Z,99.90
2022-11-29T04:50:43.493Z,99.90
2022-11-29T04:53:31.703Z,1.00
2022-11-29T04:56:14.972Z,1.00
2022-11-29T04:58:53.202Z,99.90
2022-11-29T05:01:28.164Z,99.90
2022-11-29T05:04:04.357Z,99.90
2022-11-29T05:06:40.804Z,1.00
2022-11-29T05:09:20.395Z,1.00
2022-11-29T05:12:02.823Z,1.00
2022-11-29T05:14:50.298Z,1.00
2022-11-29T05:17:32.749Z,24.20
2022-11-29T05:20:25.962Z,1.00
2022-11-29T05:23:10.063Z,1.00
2022-11-29T05:25:49.482Z,1.00
2022-11-29T05:28:25.971Z,1.00
2022-11-29T05:31:28.122Z,1.00
2022-11-29T05:34:33.369Z,99.90
2022-11-29T05:37:15.057Z,99.90
2022-11-29T05:39:58.809Z,99.90
2022-11-29T05:43:02.775Z,99.90
2022-11-29T05:45:37.158Z,99.90
2022-11-29T05:48:15.714Z,1.00
2022-11-29T05:50:49.907Z,99.90
2022-11-29T05:53:24.975Z,99.90
2022-11-29T05:56:04.079Z,99.90
2022-11-29T05:58:44.876Z,99.90
2022-11-29T06:01:24.275Z,1.00
2022-11-29T06:04:00.687Z,99.90
2022-11-29T06:06:36.851Z,1.00
2022-11-29T06:09:14.168Z,99.90
2022-11-29T06:11:48.187Z,99.90
2022-11-29T06:14:34.239Z,99.90
2022-11-29T06:17:26.063Z,99.90
2022-11-29T06:20:11.463Z,99.90
2022-11-29T06:22:58.129Z,99.90
2022-11-29T06:25:42.582Z,99.90
2022-11-29T06:28:28.838Z,46.10
2022-11-29T06:31:03.903Z,99.90
2022-11-29T06:33:39.977Z,1.00
2022-11-29T06:36:25.656Z,99.90
2022-11-29T06:38:56.459Z,99.90
2022-11-29T06:41:26.444Z,99.90
2022-11-29T06:43:55.816Z,99.90
2022-11-29T06:46:36.593Z,99.90
2022-11-29T06:49:13.455Z,99.90
2022-11-29T06:51:55.847Z,99.90
2022-11-29T06:54:49.197Z,99.90
2022-11-29T06:57:27.437Z,1.00
2022-11-29T07:00:11.178Z,99.90
2022-11-29T07:02:54.978Z,99.90
2022-11-29T07:05:28.937Z,99.10
2022-11-29T07:08:03.856Z,46.50
2022-11-29T07:10:36.563Z,46.20
2022-11-29T07:13:06.277Z,1.00
2022-11-29T07:15:36.837Z,1.00
2022-11-29T07:18:20.088Z,99.90
2022-11-29T07:20:58.156Z,63.80
2022-11-29T07:23:36.318Z,1.00
2022-11-29T07:26:18.320Z,1.00
2022-11-29T07:29:01.036Z,1.00
2022-11-29T07:31:39.618Z,1.00
2022-11-29T07:34:19.890Z,1.00
2022-11-29T07:36:59.198Z,99.90
2022-11-29T07:39:41.795Z,99.90
2022-11-29T07:42:18.197Z,1.00
2022-11-29T07:44:57.410Z,99.90
2022-11-29T07:47:27.494Z,1.00
2022-11-29T07:49:57.692Z,99.90
2022-11-29T07:52:26.440Z,99.90
2022-11-29T07:54:56.999Z,99.90
2022-11-29T07:57:25.767Z,99.90
2022-11-29T07:59:54.364Z,99.90
2022-11-29T08:02:29.227Z,99.90
2022-11-29T08:04:58.021Z,99.90
2022-11-29T08:07:27.099Z,37.40
2022-11-29T08:09:57.291Z,1.00
2022-11-29T08:12:26.358Z,1.00
2022-11-29T08:14:55.008Z,1.00
2022-11-29T08:17:23.612Z,1.00
2022-11-29T08:19:52.285Z,1.00
2022-11-29T08:22:21.158Z,1.00
2022-11-29T08:24:49.876Z,1.00
2022-11-29T08:27:19.924Z,1.00
2022-11-29T08:29:48.715Z,1.00
2022-11-29T08:32:17.553Z,1.00
2022-11-29T08:34:47.144Z,1.00
2022-11-29T08:37:17.657Z,1.00
2022-11-29T08:39:46.939Z,1.00
2022-11-29T08:42:16.307Z,1.00
2022-11-29T08:44:48.074Z,1.00
2022-11-29T08:47:34.398Z,1.00
2022-11-29T08:50:03.733Z,1.00
2022-11-29T08:52:50.606Z,1.00
2022-11-29T08:55:20.378Z,1.00
2022-11-29T08:57:49.218Z,1.00
2022-11-29T09:00:21.438Z,1.00
2022-11-29T09:02:50.235Z,1.00
2022-11-29T09:05:19.097Z,1.00
2022-11-29T09:07:47.765Z,1.00
2022-11-29T09:10:16.453Z,1.00
2022-11-29T09:12:45.216Z,99.90
2022-11-29T09:15:14.698Z,99.90
2022-11-29T09:17:45.357Z,99.90
2022-11-29T09:20:15.116Z,99.90
2022-11-29T09:22:43.904Z,99.90
2022-11-29T09:25:12.903Z,99.90
2022-11-29T09:27:42.302Z,99.90
2022-11-29T09:30:12.896Z,99.90
2022-11-29T09:32:41.760Z,99.90
2022-11-29T09:35:11.986Z,99.90
2022-11-29T09:37:44.576Z,99.90
2022-11-29T09:40:20.547Z,99.90
2022-11-29T09:42:59.373Z,99.90
2022-11-29T09:45:31.937Z,99.90
2022-11-29T09:48:27.846Z,99.90
2022-11-29T09:51:12.830Z,99.90
2022-11-29T09:53:59.000Z,99.90
2022-11-29T09:56:34.827Z,99.90
2022-11-29T09:59:07.437Z,1.00
2022-11-29T10:01:40.548Z,1.00
2022-11-29T10:04:15.438Z,1.00
2022-11-29T10:06:51.756Z,1.00
2022-11-29T10:09:30.879Z,1.00
2022-11-29T10:12:15.682Z,99.90
2022-11-29T10:14:52.107Z,99.90
2022-11-29T10:17:31.526Z,99.90
2022-11-29T10:20:05.816Z,99.90
2022-11-29T10:22:43.983Z,99.90
2022-11-29T10:25:23.018Z,99.90
2022-11-29T10:27:51.698Z,99.90
2022-11-29T10:30:21.078Z,99.90
2022-11-29T10:32:56.796Z,99.90
2022-11-29T10:35:26.296Z,99.90
2022-11-29T10:38:30.197Z,99.90
2022-11-29T10:40:52.736Z,99.90
2022-11-29T10:43:21.577Z,99.90
2022-11-29T10:45:56.336Z,99.90
2022-11-29T10:48:29.023Z,99.90
2022-11-29T10:50:57.821Z,99.90
2022-11-29T10:53:31.997Z,99.90
2022-11-29T10:56:05.975Z,99.90
2022-11-29T10:58:35.387Z,99.90
2022-11-29T11:01:07.827Z,99.90
2022-11-29T11:03:39.600Z,99.90
2022-11-29T11:06:16.091Z,99.90
2022-11-29T11:08:51.173Z,99.90
2022-11-29T11:11:30.738Z,99.90
2022-11-29T11:14:01.053Z,99.90
2022-11-29T11:16:35.617Z,99.90
2022-11-29T11:19:28.065Z,99.90
2022-11-29T11:21:57.967Z,99.90
2022-11-29T11:24:33.267Z,99.90
2022-11-29T11:27:02.897Z,99.90
2022-11-29T11:29:36.672Z,99.90
2022-11-29T11:32:16.461Z,99.90
2022-11-29T11:34:58.544Z,99.90
2022-11-29T11:37:29.942Z,99.90
2022-11-29T11:40:02.462Z,99.90
2022-11-29T11:42:38.291Z,99.90
2022-11-29T11:45:26.349Z,99.90
2022-11-29T11:47:58.138Z,99.90
2022-11-29T11:50:32.819Z,99.90
2022-11-29T11:53:06.820Z,99.90
2022-11-29T11:55:41.038Z,99.90
2022-11-29T11:58:19.857Z,99.90
2022-11-29T12:01:07.129Z,99.90
2022-11-29T12:03:51.291Z,99.90
2022-11-29T12:06:38.502Z,99.90
2022-11-29T12:09:18.976Z,99.90
2022-11-29T12:11:56.594Z,99.90
2022-11-29T12:14:34.231Z,99.90
2022-11-29T12:17:19.674Z,99.90
2022-11-29T12:20:01.577Z,99.90
2022-11-29T12:22:37.283Z,99.90
2022-11-29T12:25:12.998Z,99.90
2022-11-29T12:27:43.198Z,99.90
2022-11-29T12:30:15.906Z,99.90
2022-11-29T12:33:06.216Z,99.90
2022-11-29T12:35:50.700Z,99.90
2022-11-29T12:38:32.715Z,99.90
2022-11-29T12:41:15.096Z,99.90
2022-11-29T12:43:55.458Z,99.90
2022-11-29T12:46:26.549Z,99.90
2022-11-29T12:49:02.754Z,99.90
2022-11-29T12:51:42.007Z,99.90
2022-11-29T12:54:23.746Z,99.90
2022-11-29T12:57:02.499Z,99.90
2022-11-29T12:59:47.199Z,99.90
2022-11-29T13:02:32.501Z,99.90
2022-11-29T13:05:06.539Z,99.90
2022-11-29T13:07:45.561Z,99.90
2022-11-29T13:10:30.424Z,99.90
2022-11-29T13:13:01.224Z,99.90
2022-11-29T13:15:38.324Z,99.90
2022-11-29T13:18:16.557Z,99.90
2022-11-29T13:20:52.581Z,99.90
2022-11-29T13:23:46.011Z,99.90
2022-11-29T13:26:16.824Z,99.90
2022-11-29T13:28:50.924Z,99.90
2022-11-29T13:31:24.061Z,99.90
2022-11-29T13:34:00.329Z,99.90
2022-11-29T13:36:41.018Z,99.90
2022-11-29T13:39:31.458Z,99.90
2022-11-29T13:42:09.297Z,99.90
2022-11-29T13:44:46.617Z,99.90
2022-11-29T13:47:18.676Z,99.90
2022-11-29T13:49:59.424Z,99.90
2022-11-29T13:52:39.801Z,99.90
2022-11-29T13:55:23.797Z,99.90
2022-11-29T13:58:15.397Z,99.90
2022-11-29T14:00:52.302Z,99.90
2022-11-29T14:03:32.057Z,99.90
2022-11-29T14:06:12.044Z,99.90
2022-11-29T14:09:17.083Z,99.90
2022-11-29T14:11:39.164Z,99.90
2022-11-29T14:14:11.710Z,99.90
2022-11-29T14:16:48.160Z,99.90
2022-11-29T14:19:33.023Z,99.90
2022-11-29T14:22:30.555Z,99.90
2022-11-29T14:25:49.738Z,99.90
2022-11-29T14:28:30.780Z,99.90
2022-11-29T14:31:02.107Z,99.90
2022-11-29T14:33:52.597Z,99.90
2022-11-29T14:36:48.553Z,99.90
2022-11-29T14:39:31.642Z,99.90
2022-11-29T14:42:17.578Z,99.90
2022-11-29T14:44:52.567Z,99.90
2022-11-29T14:47:30.003Z,99.90
2022-11-29T14:50:01.227Z,99.90
2022-11-29T14:52:37.400Z,99.90
2022-11-29T14:55:09.628Z,99.90
2022-11-29T14:58:12.576Z,99.90
2022-11-29T15:01:10.943Z,99.90
2022-11-29T15:03:49.846Z,99.90
2022-11-29T15:06:29.269Z,99.90
2022-11-29T15:09:05.020Z,99.90
2022-11-29T15:11:49.751Z,99.90
2022-11-29T15:14:26.342Z,99.90
2022-11-29T15:17:09.398Z,99.90
2022-11-29T15:20:01.471Z,99.90
2022-11-29T15:22:37.682Z,99.90
2022-11-29T15:25:15.066Z,99.90
2022-11-29T15:27:53.258Z,99.90
2022-11-29T15:30:29.965Z,99.90
2022-11-29T15:33:00.004Z,99.90
2022-11-29T15:35:29.018Z,99.90
2022-11-29T15:37:58.312Z,99.90
2022-11-29T15:40:35.832Z,99.90
2022-11-29T15:43:16.747Z,99.90
2022-11-29T15:45:50.094Z,99.90
2022-11-29T15:48:22.503Z,99.90
2022-11-29T15:50:57.407Z,99.90
2022-11-29T15:53:31.429Z,99.90
2022-11-29T15:56:05.084Z,99.90
2022-11-29T15:58:36.301Z,99.90
2022-11-29T16:01:05.859Z,1.00
2022-11-29T16:03:38.016Z,1.00
2022-11-29T16:06:10.664Z,1.00
2022-11-29T16:08:43.723Z,1.00
2022-11-29T16:11:19.488Z,1.00
2022-11-29T16:14:05.228Z,1.00
2022-11-29T16:16:35.749Z,1.00
2022-11-29T16:19:19.932Z,5.40
2022-11-29T16:22:01.288Z,16.90
2022-11-29T16:24:30.208Z,15.60
2022-11-29T16:27:03.416Z,94.20
2022-11-29T16:29:36.011Z,94.20
2022-11-29T16:32:15.892Z,87.30
2022-11-29T16:34:45.858Z,86.80
2022-11-29T16:37:21.618Z,79.80
2022-11-29T16:39:54.524Z,99.90
2022-11-29T16:42:27.689Z,99.90
2022-11-29T16:45:06.773Z,99.90
2022-11-29T16:47:52.936Z,99.90
2022-11-29T16:50:24.780Z,99.90
2022-11-29T16:52:56.821Z,99.90
2022-11-29T16:55:26.858Z,99.90
2022-11-29T16:57:57.722Z,99.90
2022-11-29T17:00:32.488Z,99.90
2022-11-29T17:03:02.200Z,99.90
2022-11-29T17:05:32.486Z,99.90
2022-11-29T17:08:02.515Z,50.30
2022-11-29T17:10:32.507Z,1.00
2022-11-29T17:13:04.640Z,1.00
2022-11-29T17:15:33.375Z,1.00
2022-11-29T17:18:02.206Z,1.00
2022-11-29T17:20:31.116Z,38.20
2022-11-29T17:22:59.856Z,99.90
2022-11-29T17:25:29.732Z,99.90
2022-11-29T17:27:58.692Z,99.90
2022-11-29T17:30:32.539Z,99.90
2022-11-29T17:33:01.532Z,1.00
2022-11-29T17:35:30.625Z,1.00
2022-11-29T17:38:01.528Z,9.70
2022-11-29T17:40:33.407Z,1.00
2022-11-29T17:43:04.147Z,1.00
2022-11-29T17:45:35.478Z,87.30
2022-11-29T17:48:04.979Z,99.90
2022-11-29T17:50:34.584Z,99.90
2022-11-29T17:53:03.586Z,99.90
2022-11-29T17:55:32.517Z,99.90
2022-11-29T17:58:02.745Z,99.90
2022-11-29T18:00:33.692Z,99.90
2022-11-29T18:03:05.843Z,1.00
2022-11-29T18:05:35.426Z,99.90
2022-11-29T18:08:06.033Z,1.00
2022-11-29T18:10:36.278Z,99.90
2022-11-29T18:13:05.613Z,1.00
2022-11-29T18:15:34.905Z,99.90
2022-11-29T18:18:05.444Z,99.90
2022-11-29T18:20:35.649Z,1.00
2022-11-29T18:23:08.087Z,1.00
2022-11-29T18:25:39.512Z,1.00
2022-11-29T18:28:12.296Z,99.90
2022-11-29T18:30:44.574Z,99.90
2022-11-29T18:33:15.579Z,1.00
2022-11-29T18:35:49.421Z,99.90
2022-11-29T18:38:18.935Z,99.90
2022-11-29T18:40:49.518Z,99.90
2022-11-29T18:43:19.169Z,99.90
2022-11-29T18:45:48.932Z,99.90
2022-11-29T18:48:19.263Z,99.90
2022-11-29T18:50:48.866Z,99.90
2022-11-29T18:53:18.579Z,5.80
2022-11-29T18:55:47.779Z,1.00
2022-11-29T18:58:18.555Z,1.00
2022-11-29T19:00:48.833Z,1.00
2022-11-29T19:03:19.824Z,1.00
2022-11-29T19:05:53.884Z,1.00
2022-11-29T19:08:23.287Z,1.00
2022-11-29T19:10:53.776Z,99.90
2022-11-29T19:13:23.255Z,99.90
2022-11-29T19:15:56.436Z,99.90
2022-11-29T19:18:29.613Z,99.90
2022-11-29T19:21:06.986Z,99.90
2022-11-29T19:23:36.372Z,1.00
2022-11-29T19:26:08.486Z,58.20
2022-11-29T19:28:39.433Z,99.90
2022-11-29T19:31:09.583Z,33.80
2022-11-29T19:33:42.177Z,1.00
2022-11-29T19:36:18.272Z,99.90
2022-11-29T19:38:53.427Z,1.00
2022-11-29T19:41:25.415Z,1.00
2022-11-29T19:43:56.611Z,1.00
2022-11-29T19:46:29.155Z,1.00
2022-11-29T19:49:01.333Z,1.00
2022-11-29T19:51:32.008Z,99.90
2022-11-29T19:54:02.811Z,1.00
2022-11-29T19:56:33.665Z,1.00
2022-11-29T19:59:03.217Z,1.00
2022-11-29T20:01:40.117Z,1.00
2022-11-29T20:04:13.637Z,1.00
2022-11-29T20:06:44.981Z,1.00
2022-11-29T20:09:14.964Z,1.00
2022-11-29T20:11:45.583Z,1.00
2022-11-29T20:14:16.220Z,99.90
2022-11-29T20:16:46.691Z,99.90
2022-11-29T20:19:19.144Z,99.90
2022-11-29T20:21:49.939Z,99.90
2022-11-29T20:24:20.507Z,1.00
2022-11-29T20:26:51.087Z,99.90
2022-11-29T20:29:22.242Z,99.90
2022-11-29T20:31:51.750Z,99.90
2022-11-29T20:34:24.220Z,99.90
2022-11-29T20:37:18.689Z,99.90
2022-11-29T20:39:53.379Z,99.90
2022-11-29T20:42:48.888Z,99.90
2022-11-29T20:45:19.165Z,99.90
2022-11-29T20:47:55.032Z,99.90
2022-11-29T20:50:29.346Z,1.00
2022-11-29T20:53:14.901Z,1.00
2022-11-29T20:55:47.887Z,1.00
2022-11-29T20:58:18.897Z,1.00
2022-11-29T21:00:48.778Z,1.00
2022-11-29T21:03:18.398Z,1.00
2022-11-29T21:05:49.708Z,1.00
2022-11-29T21:08:21.540Z,1.00
2022-11-29T21:10:51.329Z,1.00
2022-11-29T21:13:22.313Z,1.00
2022-11-29T21:15:52.254Z,1.00
2022-11-29T21:18:26.347Z,1.00
2022-11-29T21:21:05.248Z,1.00
2022-11-29T21:23:46.645Z,1.00
2022-11-29T21:26:18.178Z,1.00
2022-11-29T21:28:57.971Z,1.00
2022-11-29T21:31:27.332Z,1.00
2022-11-29T21:33:56.671Z,1.00
2022-11-29T21:36:27.843Z,1.00
2022-11-29T21:39:03.593Z,1.00
2022-11-29T21:41:39.292Z,1.00
2022-11-29T21:44:08.985Z,1.00
2022-11-29T21:46:39.731Z,1.00
2022-11-29T21:49:09.217Z,1.00
2022-11-29T21:51:40.161Z,1.00
2022-11-29T21:54:13.294Z,1.00
2022-11-29T21:56:58.969Z,1.00
2022-11-29T21:59:34.112Z,1.00
2022-11-29T22:02:14.439Z,1.00
2022-11-29T22:04:47.816Z,1.00
2022-11-29T22:07:20.934Z,1.00
2022-11-29T22:09:52.420Z,1.00
2022-11-29T22:12:34.243Z,5.20
2022-11-29T22:15:03.907Z,10.60
2022-11-29T22:17:33.261Z,5.50
2022-11-29T22:20:02.431Z,5.60
2022-11-29T22:22:32.573Z,7.70
2022-11-29T22:25:01.194Z,16.40
2022-11-29T22:27:29.865Z,16.70
2022-11-29T22:29:58.530Z,9.80
2022-11-29T22:32:27.343Z,12.20
2022-11-29T22:34:55.996Z,15.70
2022-11-29T22:37:24.830Z,18.40
2022-11-29T22:39:54.945Z,15.40
2022-11-29T22:42:23.522Z,19.60
2022-11-29T22:44:52.404Z,25.70
2022-11-29T22:47:21.178Z,27.00
2022-11-29T22:49:50.523Z,30.30
2022-11-29T22:52:19.062Z,30.10
2022-11-29T22:54:47.946Z,28.80
2022-11-29T22:57:18.241Z,30.00
2022-11-29T22:59:47.002Z,22.70
2022-11-29T23:02:15.716Z,15.70
2022-11-29T23:04:45.834Z,29.80
2022-11-29T23:07:14.650Z,49.40
2022-11-29T23:09:43.322Z,48.80
2022-11-29T23:12:12.007Z,45.80
2022-11-29T23:14:42.067Z,49.80
2022-11-29T23:17:10.612Z,54.20
2022-11-29T23:19:39.304Z,64.00
2022-11-29T23:22:07.969Z,57.70
2022-11-29T23:24:36.659Z,50.80
2022-11-29T23:27:05.436Z,48.60
2022-11-29T23:29:34.121Z,47.40
2022-11-29T23:32:04.361Z,44.30
2022-11-29T23:34:32.957Z,35.40
2022-11-29T23:37:01.641Z,42.40
2022-11-29T23:39:30.379Z,37.70
2022-11-29T23:41:58.975Z,30.20
2022-11-29T23:44:27.618Z,32.70
2022-11-29T23:46:56.331Z,32.10
2022-11-29T23:49:26.384Z,43.90
2022-11-29T23:51:55.055Z,38.50
2022-11-29T23:54:24.830Z,28.90
2022-11-29T23:56:53.550Z,19.50
2022-11-29T23:59:22.350Z,24.00
